createdAt,value
2022-12-15T00:02:26.624Z,81.86
2022-12-15T00:05:11.543Z,81.35
2022-12-15T00:07:56.669Z,81.24
2022-12-15T00:10:41.519Z,81.70
2022-12-15T00:13:31.108Z,81.73
2022-12-15T00:16:16.375Z,81.42
2022-12-15T00:19:01.600Z,81.66
2022-12-15T00:21:47.299Z,82.05
2022-12-15T00:24:32.329Z,81.79
2022-12-15T00:27:17.270Z,81.47
2022-12-15T00:30:02.103Z,81.74
2022-12-15T00:32:46.976Z,81.97
2022-12-15T00:35:32.437Z,81.52
2022-12-15T00:38:17.283Z,81.23
2022-12-15T00:40:43.823Z,81.23
2022-12-15T00:43:12.053Z,81.39
2022-12-15T00:45:57.839Z,81.43
2022-12-15T00:48:24.439Z,81.36
2022-12-15T00:50:53.857Z,81.48
2022-12-15T00:53:41.151Z,81.69
2022-12-15T00:56:27.329Z,81.53
2022-12-15T00:59:12.845Z,81.88
2022-12-15T01:01:58.361Z,81.36
2022-12-15T01:04:43.493Z,81.16
2022-12-15T01:07:28.934Z,81.05
2022-12-15T01:10:13.750Z,81.27
2022-12-15T01:12:58.999Z,81.68
2022-12-15T01:15:44.589Z,81.85
2022-12-15T01:18:29.723Z,81.51
2022-12-15T01:21:05.404Z,81.90
2022-12-15T01:23:33.183Z,80.87
2022-12-15T01:26:00.689Z,80.71
2022-12-15T01:28:27.351Z,81.67
2022-12-15T01:30:54.417Z,80.91
2022-12-15T01:33:21.325Z,80.21
2022-12-15T01:36:01.052Z,80.07
2022-12-15T01:38:28.587Z,80.32
2022-12-15T01:41:04.095Z,80.68
2022-12-15T01:43:35.539Z,79.93
2022-12-15T01:46:17.884Z,80.11
2022-12-15T01:48:49.053Z,80.27
2022-12-15T01:51:24.878Z,80.31
2022-12-15T01:54:19.052Z,80.08
2022-12-15T01:56:54.935Z,80.69
2022-12-15T01:59:27.058Z,80.65
2022-12-15T02:01:53.709Z,81.69
2022-12-15T02:04:22.647Z,81.29
2022-12-15T02:06:49.635Z,81.51
2022-12-15T02:09:17.469Z,81.46
2022-12-15T02:11:59.429Z,81.01
2022-12-15T02:14:32.358Z,81.09
2022-12-15T02:17:22.286Z,81.18
2022-12-15T02:20:25.908Z,80.89
2022-12-15T02:23:29.488Z,81.06
2022-12-15T02:26:18.069Z,81.18
2022-12-15T02:29:03.364Z,81.38
2022-12-15T02:31:50.662Z,81.30
2022-12-15T02:34:40.537Z,81.36
2022-12-15T02:37:13.447Z,80.87
2022-12-15T02:39:40.046Z,80.50
2022-12-15T02:42:06.762Z,81.44
2022-12-15T02:44:41.362Z,81.98
2022-12-15T02:47:37.487Z,81.24
2022-12-15T02:50:13.347Z,81.19
2022-12-15T02:52:58.432Z,80.63
2022-12-15T02:55:34.423Z,80.55
2022-12-15T02:58:08.752Z,79.64
2022-12-15T03:00:40.830Z,79.34
2022-12-15T03:03:07.920Z,79.41
2022-12-15T03:05:34.707Z,80.54
2022-12-15T03:08:01.394Z,81.08
2022-12-15T03:10:28.147Z,81.52
2022-12-15T03:12:54.883Z,81.50
2022-12-15T03:15:21.626Z,80.85
2022-12-15T03:17:48.189Z,80.80
2022-12-15T03:20:14.719Z,80.80
2022-12-15T03:22:41.282Z,80.70
2022-12-15T03:25:08.231Z,80.39
2022-12-15T03:27:35.274Z,80.46
2022-12-15T03:30:01.936Z,80.39
2022-12-15T03:32:29.703Z,81.12
2022-12-15T03:34:56.247Z,80.63
2022-12-15T03:37:22.774Z,80.50
2022-12-15T03:39:49.640Z,80.19
2022-12-15T03:42:36.208Z,80.38
2022-12-15T03:45:03.043Z,80.37
2022-12-15T03:47:29.561Z,80.31
2022-12-15T03:49:56.069Z,79.26
2022-12-15T03:52:22.586Z,78.60
2022-12-15T03:54:49.108Z,78.49
2022-12-15T03:57:15.624Z,79.02
2022-12-15T03:59:42.183Z,80.55
2022-12-15T04:02:12.132Z,80.47
2022-12-15T04:04:38.791Z,80.92
2022-12-15T04:07:05.379Z,80.60
2022-12-15T04:09:31.899Z,80.37
2022-12-15T04:11:58.409Z,80.39
2022-12-15T04:14:24.952Z,80.13
2022-12-15T04:16:51.460Z,79.99
2022-12-15T04:19:36.455Z,80.00
2022-12-15T04:22:03.643Z,80.12
2022-12-15T04:24:48.796Z,80.61
2022-12-15T04:27:33.814Z,80.37
2022-12-15T04:30:18.785Z,80.53
2022-12-15T04:33:03.816Z,79.92
2022-12-15T04:35:52.579Z,80.29
2022-12-15T04:38:43.953Z,79.98
2022-12-15T04:41:37.846Z,80.68
2022-12-15T04:44:23.778Z,80.40
2022-12-15T04:47:09.206Z,80.19
2022-12-15T04:49:54.145Z,80.19
2022-12-15T04:52:39.393Z,80.77
2022-12-15T04:55:25.192Z,80.46
2022-12-15T04:58:10.205Z,80.75
2022-12-15T05:00:55.987Z,80.62
2022-12-15T05:03:40.898Z,80.71
2022-12-15T05:06:26.800Z,80.39
2022-12-15T05:09:11.719Z,80.66
2022-12-15T05:11:57.365Z,80.72
2022-12-15T05:14:42.549Z,80.79
2022-12-15T05:17:27.376Z,80.53
2022-12-15T05:20:12.575Z,80.08
2022-12-15T05:22:57.375Z,80.37
2022-12-15T05:25:42.298Z,79.79
2022-12-15T05:28:27.167Z,80.52
2022-12-15T05:31:12.252Z,80.85
2022-12-15T05:33:59.586Z,80.85
2022-12-15T05:36:29.277Z,80.70
2022-12-15T05:38:55.763Z,80.28
2022-12-15T05:41:22.380Z,80.16
2022-12-15T05:43:48.897Z,80.49
2022-12-15T05:46:15.466Z,80.48
2022-12-15T05:48:42.048Z,80.30
2022-12-15T05:51:10.608Z,79.24
2022-12-15T05:53:38.610Z,79.25
2022-12-15T05:56:08.275Z,79.22
2022-12-15T05:58:38.725Z,79.24
2022-12-15T06:01:17.588Z,79.51
2022-12-15T06:03:44.766Z,78.82
2022-12-15T06:06:12.888Z,78.34
2022-12-15T06:08:41.343Z,79.86
2022-12-15T06:11:09.929Z,80.69
2022-12-15T06:13:36.502Z,80.34
2022-12-15T06:16:24.258Z,79.22
2022-12-15T06:18:55.017Z,78.70
2022-12-15T06:21:24.811Z,78.73
2022-12-15T06:23:52.012Z,78.31
2022-12-15T06:26:20.580Z,79.10
2022-12-15T06:28:48.336Z,78.79
2022-12-15T06:31:16.206Z,79.12
2022-12-15T06:33:43.050Z,78.09
2022-12-15T06:36:13.229Z,78.53
2022-12-15T06:38:42.082Z,80.26
2022-12-15T06:41:08.592Z,80.19
2022-12-15T06:43:35.358Z,79.20
2022-12-15T06:46:03.147Z,79.18
2022-12-15T06:48:30.224Z,79.59
2022-12-15T06:50:57.143Z,79.11
2022-12-15T06:53:24.519Z,79.11
2022-12-15T06:55:51.277Z,78.17
2022-12-15T06:58:18.283Z,78.01
2022-12-15T07:00:46.169Z,77.86
2022-12-15T07:03:16.139Z,78.10
2022-12-15T07:05:43.869Z,78.67
2022-12-15T07:08:11.971Z,79.30
2022-12-15T07:10:43.266Z,78.93
2022-12-15T07:13:13.533Z,78.97
2022-12-15T07:15:41.599Z,78.70
2022-12-15T07:18:10.287Z,78.80
2022-12-15T07:20:36.837Z,79.04
2022-12-15T07:23:09.513Z,77.76
2022-12-15T07:25:36.981Z,78.09
2022-12-15T07:28:04.035Z,78.26
2022-12-15T07:30:36.777Z,78.11
2022-12-15T07:33:05.589Z,77.75
2022-12-15T07:35:32.457Z,78.09
2022-12-15T07:37:58.973Z,78.74
2022-12-15T07:40:25.671Z,79.25
2022-12-15T07:42:52.182Z,79.31
2022-12-15T07:45:18.794Z,79.54
2022-12-15T07:47:50.084Z,79.15
2022-12-15T07:50:18.482Z,79.18
2022-12-15T07:52:45.946Z,79.60
2022-12-15T07:55:13.314Z,79.41
2022-12-15T07:57:39.818Z,79.44
2022-12-15T08:00:09.113Z,78.85
2022-12-15T08:02:40.504Z,78.85
2022-12-15T08:05:07.692Z,78.55
2022-12-15T08:07:34.203Z,77.71
2022-12-15T08:10:00.765Z,78.17
2022-12-15T08:12:28.447Z,78.78
2022-12-15T08:14:55.039Z,78.79
2022-12-15T08:17:21.573Z,77.83
2022-12-15T08:19:48.112Z,77.98
2022-12-15T08:22:15.512Z,78.88
2022-12-15T08:24:42.168Z,77.31
2022-12-15T08:27:08.894Z,77.61
2022-12-15T08:29:52.101Z,77.84
2022-12-15T08:32:19.205Z,77.81
2022-12-15T08:34:47.731Z,77.46
2022-12-15T08:37:26.794Z,77.00
2022-12-15T08:39:54.704Z,76.48
2022-12-15T08:42:21.399Z,76.53
2022-12-15T08:44:51.479Z,76.66
2022-12-15T08:47:18.088Z,75.58
2022-12-15T08:49:45.049Z,75.67
2022-12-15T08:52:12.470Z,75.95
2022-12-15T08:54:39.077Z,76.53
2022-12-15T08:57:05.563Z,76.47
2022-12-15T08:59:32.141Z,76.54
2022-12-15T09:01:59.354Z,76.93
2022-12-15T09:04:26.201Z,77.22
2022-12-15T09:06:52.808Z,75.85
2022-12-15T09:09:20.097Z,76.77
2022-12-15T09:11:46.716Z,77.20
2022-12-15T09:14:13.258Z,77.43
2022-12-15T09:16:39.945Z,77.50
2022-12-15T09:19:08.159Z,76.55
2022-12-15T09:21:34.882Z,78.08
2022-12-15T09:24:02.879Z,77.21
2022-12-15T09:26:32.092Z,76.02
2022-12-15T09:28:59.017Z,76.32
2022-12-15T09:31:36.003Z,76.52
2022-12-15T09:34:02.596Z,76.56
2022-12-15T09:36:30.824Z,76.62
2022-12-15T09:38:58.017Z,76.01
2022-12-15T09:41:28.291Z,76.71
2022-12-15T09:44:06.680Z,76.40
2022-12-15T09:46:51.082Z,76.05
2022-12-15T09:49:29.559Z,75.46
2022-12-15T09:52:08.833Z,75.33
2022-12-15T09:54:38.185Z,76.58
2022-12-15T09:57:19.219Z,76.48
2022-12-15T10:00:05.216Z,74.74
2022-12-15T10:02:50.368Z,75.07
2022-12-15T10:06:07.400Z,74.97
2022-12-15T10:08:24.321Z,74.82
2022-12-15T10:10:59.165Z,74.77
2022-12-15T10:13:53.506Z,74.98
2022-12-15T10:19:55.207Z,75.13
2022-12-15T10:22:27.503Z,74.57
2022-12-15T10:25:11.155Z,74.08
2022-12-15T10:28:09.585Z,74.21
2022-12-15T10:30:59.088Z,75.01
2022-12-15T10:33:35.515Z,74.83
2022-12-15T10:36:07.481Z,75.05
2022-12-15T10:38:38.638Z,74.53
2022-12-15T10:41:08.755Z,74.26
2022-12-15T10:43:40.901Z,73.77
2022-12-15T10:46:24.504Z,73.79
2022-12-15T10:48:54.704Z,74.26
2022-12-15T10:51:31.623Z,75.25
2022-12-15T10:54:09.799Z,74.99
2022-12-15T10:56:50.353Z,73.90
2022-12-15T10:59:31.978Z,74.06
2022-12-15T11:02:23.925Z,72.79
2022-12-15T11:05:16.912Z,72.77
2022-12-15T11:07:55.818Z,73.60
2022-12-15T11:10:27.315Z,74.72
2022-12-15T11:13:15.499Z,75.18
2022-12-15T11:15:50.873Z,74.51
2022-12-15T11:18:58.644Z,74.15
2022-12-15T11:21:28.033Z,74.53
2022-12-15T11:24:13.603Z,74.50
2022-12-15T11:26:46.809Z,74.56
2022-12-15T11:29:42.199Z,74.52
2022-12-15T11:32:12.197Z,73.95
2022-12-15T11:34:45.203Z,73.67
2022-12-15T11:37:34.428Z,75.02
2022-12-15T11:40:19.987Z,74.60
2022-12-15T11:43:00.968Z,74.19
2022-12-15T11:45:41.681Z,74.00
2022-12-15T11:48:13.658Z,73.90
2022-12-15T11:51:01.887Z,73.77
2022-12-15T11:53:54.263Z,73.50
2022-12-15T11:56:48.942Z,74.99
2022-12-15T11:59:50.125Z,75.00
2022-12-15T12:02:16.696Z,74.71
2022-12-15T12:05:06.603Z,75.01
2022-12-15T12:07:42.305Z,74.84
2022-12-15T12:10:48.525Z,75.23
2022-12-15T12:13:27.284Z,76.05
2022-12-15T12:16:26.248Z,76.19
2022-12-15T12:19:02.579Z,76.63
2022-12-15T12:21:35.952Z,75.98
2022-12-15T12:24:23.633Z,75.94
2022-12-15T12:27:10.706Z,75.71
2022-12-15T12:29:48.824Z,75.96
2022-12-15T12:32:30.124Z,75.71
2022-12-15T12:35:30.908Z,75.48
2022-12-15T12:37:54.936Z,76.90
2022-12-15T12:40:53.796Z,77.93
2022-12-15T12:43:40.767Z,77.55
2022-12-15T12:46:16.811Z,76.85
2022-12-15T12:48:56.146Z,76.14
2022-12-15T12:51:31.825Z,76.54
2022-12-15T12:53:59.803Z,76.53
2022-12-15T12:56:40.091Z,77.63
2022-12-15T12:59:29.796Z,79.07
2022-12-15T13:02:14.783Z,79.75
2022-12-15T13:04:44.371Z,80.02
2022-12-15T13:07:37.672Z,80.21
2022-12-15T13:10:21.984Z,79.79
2022-12-15T13:12:55.808Z,79.54
2022-12-15T13:15:31.426Z,78.57
2022-12-15T13:18:08.140Z,78.30
2022-12-15T13:20:36.943Z,77.61
2022-12-15T13:23:21.755Z,78.18
2022-12-15T13:25:57.244Z,79.24
2022-12-15T13:28:35.892Z,79.04
2022-12-15T13:31:21.114Z,78.53
2022-12-15T13:33:50.464Z,79.23
2022-12-15T13:36:41.687Z,79.53
2022-12-15T13:39:11.276Z,79.77
2022-12-15T13:42:00.236Z,79.32
2022-12-15T13:44:37.566Z,79.89
2022-12-15T13:47:20.476Z,80.41
2022-12-15T13:50:13.045Z,80.08
2022-12-15T13:53:17.197Z,79.69
2022-12-15T13:55:37.199Z,79.74
2022-12-15T13:58:11.892Z,79.19
2022-12-15T14:00:39.339Z,78.56
2022-12-15T14:03:10.226Z,78.58
2022-12-15T14:05:38.983Z,79.70
2022-12-15T14:08:15.687Z,79.91
2022-12-15T14:10:51.113Z,79.38
2022-12-15T14:13:24.836Z,79.20
2022-12-15T14:15:57.999Z,79.66
2022-12-15T14:18:29.060Z,80.56
2022-12-15T14:20:55.943Z,79.88
2022-12-15T14:23:31.300Z,80.06
2022-12-15T14:26:08.366Z,79.59
2022-12-15T14:28:36.936Z,79.89
2022-12-15T14:31:07.104Z,80.32
2022-12-15T14:33:37.449Z,80.41
2022-12-15T14:36:12.022Z,80.01
2022-12-15T14:38:51.172Z,80.96
2022-12-15T14:41:24.929Z,80.55
2022-12-15T14:44:32.193Z,80.57
2022-12-15T14:46:47.660Z,79.71
2022-12-15T14:49:21.094Z,80.20
2022-12-15T14:51:52.476Z,79.89
2022-12-15T14:54:31.900Z,79.83
2022-12-15T14:57:22.439Z,80.12
2022-12-15T14:59:51.218Z,81.07
2022-12-15T15:02:26.715Z,80.57
2022-12-15T15:03:03.889Z,74.77
2022-12-15T15:05:04.931Z,80.16
2022-12-15T15:07:33.013Z,80.20
2022-12-15T15:10:01.471Z,80.76
2022-12-15T15:12:44.022Z,80.66
2022-12-15T15:15:19.568Z,80.63
2022-12-15T15:17:52.001Z,79.87
2022-12-15T15:20:27.872Z,80.18
2022-12-15T15:23:11.209Z,79.87
2022-12-15T15:25:40.496Z,79.97
2022-12-15T15:28:21.617Z,79.41
2022-12-15T15:31:06.808Z,79.47
2022-12-15T15:33:33.616Z,80.06
2022-12-15T15:36:02.720Z,80.39
2022-12-15T15:38:40.008Z,80.01
2022-12-15T15:41:16.679Z,80.15
2022-12-15T15:43:43.429Z,80.01
2022-12-15T15:46:22.181Z,79.85
2022-12-15T15:49:09.248Z,80.27
2022-12-15T15:51:36.059Z,80.39
2022-12-15T15:54:05.686Z,80.57
2022-12-15T15:56:32.294Z,80.78
2022-12-15T15:59:02.684Z,80.67
2022-12-15T16:01:31.385Z,80.49
2022-12-15T16:03:58.025Z,80.27
2022-12-15T16:06:24.598Z,79.87
2022-12-15T16:08:53.720Z,80.66
2022-12-15T16:11:24.372Z,80.48
2022-12-15T16:13:50.893Z,80.46
2022-12-15T16:16:28.070Z,80.43
2022-12-15T16:18:54.582Z,80.23
2022-12-15T16:21:27.601Z,80.03
2022-12-15T16:23:55.285Z,80.22
2022-12-15T16:26:31.058Z,80.53
2022-12-15T16:28:57.725Z,80.32
2022-12-15T16:31:34.268Z,80.58
2022-12-15T16:34:05.638Z,79.91
2022-12-15T16:36:32.969Z,80.26
2022-12-15T16:38:59.861Z,80.10
2022-12-15T16:41:27.665Z,80.12
2022-12-15T16:43:54.530Z,80.15
2022-12-15T16:46:21.426Z,80.63
2022-12-15T16:48:48.247Z,80.71
2022-12-15T16:51:37.128Z,80.86
2022-12-15T16:54:04.165Z,81.59
2022-12-15T16:56:30.870Z,81.54
2022-12-15T16:59:23.493Z,81.05
2022-12-15T17:01:44.545Z,80.98
2022-12-15T17:04:11.483Z,80.93
2022-12-15T17:06:38.114Z,80.96
2022-12-15T17:09:05.292Z,80.98
2022-12-15T17:11:32.312Z,81.29
2022-12-15T17:14:00.733Z,80.71
2022-12-15T17:16:28.732Z,80.83
2022-12-15T17:18:55.777Z,80.57
2022-12-15T17:21:54.747Z,80.76
2022-12-15T17:24:22.319Z,80.93
2022-12-15T17:26:49.826Z,80.60
2022-12-15T17:29:22.847Z,80.38
2022-12-15T17:31:50.111Z,80.87
2022-12-15T17:34:31.613Z,80.77
2022-12-15T17:37:04.235Z,80.59
2022-12-15T17:39:33.206Z,80.86
2022-12-15T17:42:01.369Z,81.17
2022-12-15T17:44:37.207Z,81.20
2022-12-15T17:47:07.138Z,81.02
2022-12-15T17:49:37.213Z,81.70
2022-12-15T17:52:22.766Z,81.54
2022-12-15T17:54:50.707Z,81.48
2022-12-15T17:57:17.503Z,81.64
2022-12-15T17:59:44.034Z,81.84
2022-12-15T18:02:13.680Z,81.03
2022-12-15T18:04:41.333Z,81.65
2022-12-15T18:07:18.461Z,81.64
2022-12-15T18:09:45.209Z,82.38
2022-12-15T18:12:25.230Z,82.38
2022-12-15T18:14:52.377Z,83.13
2022-12-15T18:17:20.304Z,83.51
2022-12-15T18:19:47.069Z,83.55
2022-12-15T18:22:17.773Z,83.00
2022-12-15T18:24:44.462Z,83.13
2022-12-15T18:27:24.883Z,83.39
2022-12-15T18:29:52.067Z,83.71
2022-12-15T18:32:20.821Z,83.77
2022-12-15T18:34:47.329Z,83.47
2022-12-15T18:37:16.620Z,82.92
2022-12-15T18:39:43.553Z,82.99
2022-12-15T18:42:15.483Z,82.75
2022-12-15T18:44:47.696Z,83.39
2022-12-15T18:47:20.530Z,83.29
2022-12-15T18:49:47.390Z,83.20
2022-12-15T18:52:19.927Z,82.87
2022-12-15T18:54:51.307Z,82.48
2022-12-15T18:57:36.274Z,82.11
2022-12-15T19:00:17.822Z,82.30
2022-12-15T19:02:44.623Z,82.25
2022-12-15T19:05:27.651Z,82.03
2022-12-15T19:08:10.286Z,81.84
2022-12-15T19:10:42.134Z,81.88
2022-12-15T19:13:13.302Z,82.04
2022-12-15T19:15:39.994Z,81.81
2022-12-15T19:18:25.140Z,81.71
2022-12-15T19:21:10.079Z,82.51
2022-12-15T19:23:36.695Z,82.83
2022-12-15T19:26:03.346Z,81.93
2022-12-15T19:28:29.832Z,82.13
2022-12-15T19:30:56.343Z,82.51
2022-12-15T19:33:22.919Z,82.46
2022-12-15T19:35:51.362Z,82.36
2022-12-15T19:38:25.590Z,82.43
2022-12-15T19:40:53.642Z,82.18
2022-12-15T19:43:21.489Z,82.16
2022-12-15T19:45:48.957Z,82.34
2022-12-15T19:48:18.780Z,82.32
2022-12-15T19:50:51.769Z,82.48
2022-12-15T19:53:25.494Z,82.01
2022-12-15T19:55:55.139Z,82.34
2022-12-15T19:58:31.426Z,82.38
2022-12-15T20:01:19.673Z,82.38
2022-12-15T20:03:49.543Z,81.66
2022-12-15T20:06:18.796Z,81.88
2022-12-15T20:08:49.079Z,81.84
2022-12-15T20:11:24.475Z,81.77
2022-12-15T20:13:52.353Z,81.80
2022-12-15T20:16:19.995Z,81.69
2022-12-15T20:18:51.126Z,81.48
2022-12-15T20:21:22.315Z,81.44
2022-12-15T20:23:52.552Z,81.26
2022-12-15T20:26:21.085Z,81.04
2022-12-15T20:28:48.043Z,81.14
2022-12-15T20:31:17.243Z,81.63
2022-12-15T20:33:44.821Z,81.16
2022-12-15T20:36:24.502Z,81.10
2022-12-15T20:38:52.011Z,81.59
2022-12-15T20:41:26.325Z,81.61
2022-12-15T20:43:54.589Z,81.54
2022-12-15T20:46:26.120Z,81.40
2022-12-15T20:49:00.749Z,81.19
2022-12-15T20:51:30.964Z,81.59
2022-12-15T20:54:00.207Z,81.79
2022-12-15T20:56:27.478Z,81.15
2022-12-15T20:58:55.750Z,81.05
2022-12-15T21:01:28.644Z,81.06
2022-12-15T21:03:57.119Z,80.38
2022-12-15T21:06:25.307Z,80.92
2022-12-15T21:08:52.475Z,81.44
2022-12-15T21:11:20.615Z,81.16
2022-12-15T21:13:48.539Z,81.31
2022-12-15T21:16:19.599Z,80.92
2022-12-15T21:19:19.290Z,80.98
2022-12-15T21:21:40.693Z,80.98
2022-12-15T21:24:28.060Z,80.88
2022-12-15T21:26:55.211Z,80.49
2022-12-15T21:29:24.153Z,80.57
2022-12-15T21:31:50.685Z,80.55
2022-12-15T21:34:17.320Z,80.42
2022-12-15T21:36:47.426Z,80.26
2022-12-15T21:39:29.602Z,79.83
2022-12-15T21:41:59.608Z,80.24
2022-12-15T21:44:26.115Z,79.90
2022-12-15T21:46:52.697Z,79.39
2022-12-15T21:49:21.380Z,80.14
2022-12-15T21:51:53.704Z,80.16
2022-12-15T21:54:31.214Z,80.06
2022-12-15T21:57:02.592Z,80.47
2022-12-15T21:59:32.190Z,81.12
2022-12-15T22:02:02.165Z,81.55
2022-12-15T22:04:31.742Z,80.96
2022-12-15T22:06:58.287Z,79.90
2022-12-15T22:09:24.807Z,79.80
2022-12-15T22:11:54.099Z,80.53
2022-12-15T22:14:34.734Z,80.65
2022-12-15T22:17:11.540Z,80.42
2022-12-15T22:19:38.050Z,80.39
2022-12-15T22:22:04.576Z,80.49
2022-12-15T22:24:31.115Z,80.44
2022-12-15T22:26:57.758Z,80.20
2022-12-15T22:29:24.892Z,80.26
2022-12-15T22:31:51.749Z,79.31
2022-12-15T22:34:24.208Z,79.37
2022-12-15T22:36:50.816Z,79.86
2022-12-15T22:39:19.093Z,79.69
2022-12-15T22:41:48.785Z,79.80
2022-12-15T22:44:19.434Z,79.78
2022-12-15T22:46:46.818Z,79.44
2022-12-15T22:49:17.506Z,79.48
2022-12-15T22:51:44.751Z,80.22
2022-12-15T22:54:22.578Z,80.37
2022-12-15T22:56:53.626Z,80.42
2022-12-15T22:59:28.019Z,80.25
2022-12-15T23:01:55.337Z,80.63
2022-12-15T23:04:22.436Z,80.74
2022-12-15T23:06:48.974Z,81.13
2022-12-15T23:09:15.509Z,81.42
2022-12-15T23:11:42.052Z,80.94
2022-12-15T23:14:14.261Z,80.74
2022-12-15T23:16:41.660Z,80.54
2022-12-15T23:19:08.880Z,80.48
2022-12-15T23:21:36.186Z,81.08
2022-12-15T23:24:02.739Z,80.23
2022-12-15T23:26:29.242Z,80.10
2022-12-15T23:28:55.813Z,80.54
2022-12-15T23:31:22.722Z,80.15
2022-12-15T23:33:49.947Z,80.24
2022-12-15T23:36:18.742Z,80.00
2022-12-15T23:38:45.253Z,79.86
2022-12-15T23:41:16.034Z,79.72
2022-12-15T23:43:42.524Z,79.67
2022-12-15T23:46:09.396Z,80.38
2022-12-15T23:48:38.722Z,80.74
2022-12-15T23:51:08.187Z,80.75
2022-12-15T23:53:35.693Z,79.88
2022-12-15T23:56:09.537Z,79.98
2022-12-15T23:58:37.381Z,79.83
